createdAt,value
2023-01-17T00:01:33.919Z,97732.03
2023-01-17T00:04:21.202Z,97736.28
2023-01-17T00:07:06.898Z,97727.72
2023-01-17T00:09:52.577Z,97725.16
2023-01-17T00:12:21.427Z,97715.69
2023-01-17T00:14:50.201Z,97715.69
2023-01-17T00:17:18.535Z,97711.41
2023-01-17T00:20:05.940Z,97711.38
2023-01-17T00:22:51.688Z,97713.97
2023-01-17T00:25:39.482Z,97710.53
2023-01-17T00:28:07.142Z,97715.66
2023-01-17T00:30:34.403Z,97711.34
2023-01-17T00:33:01.601Z,97712.19
2023-01-17T00:35:31.742Z,97698.47
2023-01-17T00:38:07.179Z,97707.91
2023-01-17T00:40:35.651Z,97696.75
2023-01-17T00:43:22.243Z,97692.44
2023-01-17T00:46:08.338Z,97694.97
2023-01-17T00:48:54.573Z,97685.53
2023-01-17T00:51:42.628Z,97688.94
2023-01-17T00:54:29.302Z,97688.94
2023-01-17T00:57:15.412Z,97697.50
2023-01-17T01:00:01.052Z,97699.22
2023-01-17T01:02:47.842Z,97688.88
2023-01-17T01:05:34.071Z,97694.91
2023-01-17T01:08:22.223Z,97698.31
2023-01-17T01:11:07.763Z,97688.88
2023-01-17T01:13:53.418Z,97682.00
2023-01-17T01:16:39.217Z,97685.47
2023-01-17T01:19:25.001Z,97685.44
2023-01-17T01:22:10.728Z,97682.88
2023-01-17T01:24:57.611Z,97684.59
2023-01-17T01:27:43.296Z,97686.28
2023-01-17T01:30:29.893Z,97674.31
2023-01-17T01:33:15.474Z,97673.44
2023-01-17T01:35:43.851Z,97671.72
2023-01-17T01:38:12.167Z,97670.03
2023-01-17T01:40:50.932Z,97664.88
2023-01-17T01:43:21.486Z,97668.28
2023-01-17T01:45:53.978Z,97663.13
2023-01-17T01:48:32.856Z,97664.81
2023-01-17T01:51:02.991Z,97664.84
2023-01-17T01:53:34.118Z,97659.69
2023-01-17T01:56:07.411Z,97663.13
2023-01-17T01:58:37.849Z,97654.56
2023-01-17T02:01:09.173Z,97649.44
2023-01-17T02:03:41.197Z,97660.56
2023-01-17T02:06:21.085Z,97661.41
2023-01-17T02:08:50.088Z,97656.25
2023-01-17T02:11:20.137Z,97652.00
2023-01-17T02:13:48.490Z,97649.44
2023-01-17T02:16:29.395Z,97643.47
2023-01-17T02:19:12.543Z,97642.59
2023-01-17T02:21:48.908Z,97640.00
2023-01-17T02:24:38.607Z,97640.88
2023-01-17T02:27:25.458Z,97644.31
2023-01-17T02:30:28.725Z,97643.44
2023-01-17T02:33:17.545Z,97639.16
2023-01-17T02:35:56.490Z,97645.16
2023-01-17T02:38:35.076Z,97646.88
2023-01-17T02:41:07.934Z,97638.34
2023-01-17T02:43:38.387Z,97639.19
2023-01-17T02:46:09.827Z,97642.59
2023-01-17T02:48:39.715Z,97640.91
2023-01-17T02:51:36.742Z,97636.66
2023-01-17T02:54:23.624Z,97635.78
2023-01-17T02:57:03.085Z,97646.94
2023-01-17T02:59:42.619Z,97635.81
2023-01-17T03:02:23.483Z,97655.53
2023-01-17T03:04:57.668Z,97647.84
2023-01-17T03:07:28.778Z,97646.97
2023-01-17T03:10:00.391Z,97652.13
2023-01-17T03:12:29.773Z,97650.44
2023-01-17T03:14:58.161Z,97649.59
2023-01-17T03:17:33.950Z,97660.72
2023-01-17T03:20:02.292Z,97651.31
2023-01-17T03:22:30.609Z,97650.44
2023-01-17T03:24:58.925Z,97648.72
2023-01-17T03:27:27.292Z,97648.72
2023-01-17T03:29:55.816Z,97648.72
2023-01-17T03:32:24.243Z,97642.72
2023-01-17T03:34:54.063Z,97643.56
2023-01-17T03:37:22.399Z,97643.56
2023-01-17T03:39:50.711Z,97640.16
2023-01-17T03:42:19.093Z,97644.41
2023-01-17T03:44:47.483Z,97639.28
2023-01-17T03:47:15.816Z,97638.44
2023-01-17T03:49:44.163Z,97639.28
2023-01-17T03:52:13.863Z,97642.72
2023-01-17T03:54:42.182Z,97647.88
2023-01-17T03:57:10.718Z,97642.72
2023-01-17T03:59:39.076Z,97640.16
2023-01-17T04:02:07.442Z,97650.47
2023-01-17T04:04:36.058Z,97647.94
2023-01-17T04:07:04.391Z,97659.09
2023-01-17T04:09:35.516Z,97665.09
2023-01-17T04:12:04.708Z,97661.69
2023-01-17T04:14:33.072Z,97658.25
2023-01-17T04:17:01.436Z,97659.97
2023-01-17T04:19:37.890Z,97654.84
2023-01-17T04:22:06.258Z,97653.16
2023-01-17T04:24:35.977Z,97666.88
2023-01-17T04:27:05.451Z,97661.72
2023-01-17T04:29:34.089Z,97666.88
2023-01-17T04:32:02.440Z,97660.00
2023-01-17T04:34:30.765Z,97672.91
2023-01-17T04:36:59.199Z,97663.44
2023-01-17T04:39:27.545Z,97664.31
2023-01-17T04:41:57.542Z,97666.88
2023-01-17T04:44:25.870Z,97673.75
2023-01-17T04:46:54.151Z,97675.47
2023-01-17T04:49:22.452Z,97672.03
2023-01-17T04:51:50.807Z,97682.31
2023-01-17T04:54:19.299Z,97690.03
2023-01-17T04:56:47.629Z,97684.03
2023-01-17T04:59:17.330Z,97678.03
2023-01-17T05:01:45.640Z,97701.22
2023-01-17T05:04:14.003Z,97699.53
2023-01-17T05:06:42.409Z,97696.94
2023-01-17T05:09:10.731Z,97702.94
2023-01-17T05:11:39.378Z,97708.09
2023-01-17T05:14:07.746Z,97710.66
2023-01-17T05:16:37.847Z,97713.22
2023-01-17T05:19:06.136Z,97710.66
2023-01-17T05:21:34.486Z,97719.25
2023-01-17T05:24:02.813Z,97715.81
2023-01-17T05:26:31.137Z,97722.66
2023-01-17T05:28:59.535Z,97728.69
2023-01-17T05:31:27.914Z,97729.53
2023-01-17T05:33:57.594Z,97737.22
2023-01-17T05:36:26.047Z,97741.53
2023-01-17T05:38:54.588Z,97737.25
2023-01-17T05:41:22.905Z,97740.69
2023-01-17T05:43:51.313Z,97736.38
2023-01-17T05:46:19.732Z,97752.72
2023-01-17T05:48:48.102Z,97746.72
2023-01-17T05:51:17.787Z,97752.72
2023-01-17T05:53:46.145Z,97761.31
2023-01-17T05:56:14.500Z,97769.88
2023-01-17T05:58:42.913Z,97771.63
2023-01-17T06:01:11.363Z,97775.03
2023-01-17T06:03:39.799Z,97778.47
2023-01-17T06:06:08.527Z,97782.75
2023-01-17T06:08:38.252Z,97782.75
2023-01-17T06:11:06.843Z,97789.59
2023-01-17T06:13:35.582Z,97790.47
2023-01-17T06:16:04.333Z,97793.91
2023-01-17T06:18:33.048Z,97805.91
2023-01-17T06:21:01.479Z,97797.31
2023-01-17T06:23:29.880Z,97804.16
2023-01-17T06:26:03.267Z,97800.72
2023-01-17T06:28:32.215Z,97809.31
2023-01-17T06:31:00.947Z,97809.34
2023-01-17T06:33:29.283Z,97811.88
2023-01-17T06:35:57.663Z,97808.41
2023-01-17T06:38:27.273Z,97804.97
2023-01-17T06:40:55.623Z,97824.75
2023-01-17T06:43:25.307Z,97817.88
2023-01-17T06:45:55.871Z,97811.03
2023-01-17T06:48:24.492Z,97821.31
2023-01-17T06:50:52.862Z,97841.91
2023-01-17T06:53:21.211Z,97837.59
2023-01-17T06:55:49.543Z,97840.16
2023-01-17T06:58:17.890Z,97842.78
2023-01-17T07:00:47.678Z,97841.00
2023-01-17T07:03:20.969Z,97846.19
2023-01-17T07:05:49.714Z,97848.78
2023-01-17T07:08:18.808Z,97858.25
2023-01-17T07:10:47.720Z,97853.06
2023-01-17T07:13:16.120Z,97863.38
2023-01-17T07:15:44.450Z,97877.06
2023-01-17T07:18:14.685Z,97871.09
2023-01-17T07:20:44.138Z,97868.53
2023-01-17T07:23:12.484Z,97871.06
2023-01-17T07:25:40.940Z,97881.38
2023-01-17T07:28:09.652Z,97884.00
2023-01-17T07:30:38.495Z,97882.22
2023-01-17T07:33:06.852Z,97886.53
2023-01-17T07:35:37.996Z,97895.09
2023-01-17T07:38:11.266Z,97899.41
2023-01-17T07:40:42.334Z,97888.19
2023-01-17T07:43:14.430Z,97889.94
2023-01-17T07:45:43.846Z,97904.47
2023-01-17T07:48:13.133Z,97915.63
2023-01-17T07:50:43.098Z,97902.75
2023-01-17T07:53:12.089Z,97905.34
2023-01-17T07:55:40.502Z,97899.34
2023-01-17T07:58:11.163Z,97907.03
2023-01-17T08:00:39.561Z,97918.22
2023-01-17T08:03:07.940Z,97908.81
2023-01-17T08:05:36.261Z,97914.84
2023-01-17T08:08:06.559Z,97915.69
2023-01-17T08:10:35.020Z,97911.38
2023-01-17T08:13:03.392Z,97919.09
2023-01-17T08:15:32.347Z,97920.00
2023-01-17T08:18:00.660Z,97923.41
2023-01-17T08:20:29.212Z,97926.00
2023-01-17T08:22:58.013Z,97934.56
2023-01-17T08:25:28.419Z,97931.16
2023-01-17T08:27:58.854Z,97952.63
2023-01-17T08:30:27.887Z,97931.16
2023-01-17T08:32:56.471Z,97944.09
2023-01-17T08:35:24.953Z,97938.09
2023-01-17T08:37:56.321Z,97940.63
2023-01-17T08:40:25.225Z,97939.84
2023-01-17T08:42:59.652Z,97952.66
2023-01-17T08:45:28.460Z,97959.50
2023-01-17T08:47:58.720Z,97956.13
2023-01-17T08:50:27.566Z,97957.00
2023-01-17T08:53:01.214Z,97959.56
2023-01-17T08:55:30.027Z,97964.69
2023-01-17T08:57:59.835Z,97974.16
2023-01-17T09:00:29.945Z,97960.47
2023-01-17T09:02:58.251Z,97965.63
2023-01-17T09:05:26.936Z,97961.34
2023-01-17T09:07:56.132Z,97961.31
2023-01-17T09:10:24.627Z,97969.06
2023-01-17T09:12:53.407Z,97979.38
2023-01-17T09:15:23.202Z,97972.53
2023-01-17T09:17:51.572Z,97989.66
2023-01-17T09:20:20.158Z,97997.41
2023-01-17T09:22:48.494Z,97998.31
2023-01-17T09:25:17.025Z,98001.75
2023-01-17T09:27:46.861Z,98013.78
2023-01-17T09:30:15.904Z,98012.00
2023-01-17T09:32:45.592Z,97999.16
2023-01-17T09:35:13.912Z,98015.47
2023-01-17T09:37:42.221Z,98012.03
2023-01-17T09:40:15.942Z,98016.38
2023-01-17T09:42:44.772Z,98049.88
2023-01-17T09:45:17.623Z,98021.50
2023-01-17T09:47:51.136Z,98036.09
2023-01-17T09:50:28.162Z,98043.81
2023-01-17T09:53:01.627Z,98042.09
2023-01-17T09:55:35.990Z,98072.09
2023-01-17T09:58:07.285Z,98057.47
2023-01-17T10:00:50.880Z,98072.03
2023-01-17T10:03:46.264Z,98065.19
2023-01-17T10:06:26.000Z,98066.03
2023-01-17T10:09:10.335Z,98082.38
2023-01-17T10:11:48.752Z,98072.06
2023-01-17T10:14:34.232Z,98077.25
2023-01-17T10:17:13.639Z,98086.63
2023-01-17T10:19:57.426Z,98093.47
2023-01-17T10:22:44.533Z,98086.59
2023-01-17T10:25:33.176Z,98096.91
2023-01-17T10:28:11.049Z,98100.34
2023-01-17T10:30:45.223Z,98104.66
2023-01-17T10:33:17.689Z,98115.69
2023-01-17T10:35:55.208Z,98133.63
2023-01-17T10:38:29.186Z,98127.44
2023-01-17T10:41:03.478Z,98126.56
2023-01-17T10:43:44.373Z,98124.88
2023-01-17T10:46:18.140Z,98129.16
2023-01-17T10:48:49.556Z,98128.34
2023-01-17T10:51:35.544Z,98135.19
2023-01-17T10:54:18.624Z,98144.63
2023-01-17T10:56:47.290Z,98150.59
2023-01-17T10:59:28.209Z,98140.25
2023-01-17T11:01:57.598Z,98145.31
2023-01-17T11:04:35.838Z,98144.44
2023-01-17T11:07:17.691Z,98152.16
2023-01-17T11:09:48.351Z,98150.53
2023-01-17T11:12:30.243Z,98163.38
2023-01-17T11:15:04.002Z,98159.91
2023-01-17T11:17:34.107Z,98164.09
2023-01-17T11:20:17.269Z,98167.38
2023-01-17T11:23:02.328Z,98157.13
2023-01-17T11:25:34.224Z,98168.25
2023-01-17T11:28:07.067Z,98172.47
2023-01-17T11:30:35.823Z,98175.66
2023-01-17T11:33:08.886Z,98170.63
2023-01-17T11:35:42.578Z,98184.25
2023-01-17T11:38:20.435Z,98180.69
2023-01-17T11:40:50.278Z,98189.13
2023-01-17T11:43:24.055Z,98201.81
2023-01-17T11:46:04.769Z,98197.31
2023-01-17T11:48:39.210Z,98201.41
2023-01-17T11:51:17.783Z,98207.31
2023-01-17T11:53:49.230Z,98211.44
2023-01-17T11:56:32.972Z,98213.09
2023-01-17T11:59:27.918Z,98214.75
2023-01-17T12:02:24.009Z,98221.72
2023-01-17T12:05:07.498Z,98214.19
2023-01-17T12:07:43.820Z,98229.66
2023-01-17T12:10:20.595Z,98216.72
2023-01-17T12:13:19.429Z,98199.63
2023-01-17T12:16:25.479Z,98220.41
2023-01-17T12:19:06.013Z,98215.34
2023-01-17T12:21:45.175Z,98217.22
2023-01-17T12:24:33.548Z,98218.34
2023-01-17T12:27:11.441Z,98213.25
2023-01-17T12:29:47.741Z,98225.44
2023-01-17T12:32:48.378Z,98221.09
2023-01-17T12:35:21.254Z,98229.66
2023-01-17T12:38:04.682Z,98242.53
2023-01-17T12:40:38.353Z,98246.84
2023-01-17T12:43:17.191Z,98250.34
2023-01-17T12:45:48.141Z,98240.22
2023-01-17T12:48:19.135Z,98245.34
2023-01-17T12:50:52.656Z,98250.50
2023-01-17T12:53:30.548Z,98256.56
2023-01-17T12:56:04.885Z,98253.16
2023-01-17T12:58:39.357Z,98243.84
2023-01-17T13:01:18.337Z,98251.53
2023-01-17T13:04:00.225Z,98258.47
2023-01-17T13:06:36.043Z,98266.97
2023-01-17T13:09:06.328Z,98270.50
2023-01-17T13:11:44.057Z,98266.34
2023-01-17T13:14:13.842Z,98279.13
2023-01-17T13:16:47.307Z,98279.09
2023-01-17T13:19:23.789Z,98279.19
2023-01-17T13:21:52.366Z,98282.56
2023-01-17T13:24:29.340Z,98279.13
2023-01-17T13:27:44.287Z,98284.28
2023-01-17T13:30:56.731Z,98280.09
2023-01-17T13:33:38.108Z,98292.94
2023-01-17T13:36:22.833Z,98298.13
2023-01-17T13:39:00.348Z,98304.84
2023-01-17T13:41:45.934Z,98305.59
2023-01-17T13:44:25.238Z,98313.34
2023-01-17T13:47:04.208Z,98314.94
2023-01-17T13:49:36.134Z,98314.91
2023-01-17T13:52:12.328Z,98322.78
2023-01-17T13:54:46.231Z,98325.38
2023-01-17T13:57:36.110Z,98327.09
2023-01-17T14:00:41.813Z,98335.81
2023-01-17T14:03:12.946Z,98333.16
2023-01-17T14:05:49.266Z,98340.03
2023-01-17T14:08:21.809Z,98339.31
2023-01-17T14:10:53.251Z,98341.09
2023-01-17T14:13:35.059Z,98346.19
2023-01-17T14:16:04.780Z,98347.97
2023-01-17T14:18:40.795Z,98355.78
2023-01-17T14:21:13.580Z,98364.28
2023-01-17T14:23:50.687Z,98363.31
2023-01-17T14:26:38.380Z,98378.81
2023-01-17T14:29:44.360Z,98376.19
2023-01-17T14:32:14.754Z,98383.84
2023-01-17T14:34:47.129Z,98383.97
2023-01-17T14:37:27.203Z,98385.63
2023-01-17T14:39:55.634Z,98395.84
2023-01-17T14:42:26.554Z,98400.19
2023-01-17T14:45:01.247Z,98406.31
2023-01-17T14:47:33.415Z,98408.78
2023-01-17T14:50:20.497Z,98404.44
2023-01-17T14:52:49.016Z,98411.19
2023-01-17T14:55:19.572Z,98413.84
2023-01-17T14:57:55.961Z,98413.84
2023-01-17T15:00:29.190Z,98417.34
2023-01-17T15:03:00.600Z,98416.59
2023-01-17T15:05:31.384Z,98414.84
2023-01-17T15:08:00.347Z,98420.84
2023-01-17T15:10:31.503Z,98418.16
2023-01-17T15:13:09.142Z,98425.16
2023-01-17T15:15:42.050Z,98429.28
2023-01-17T15:18:23.427Z,98436.16
2023-01-17T15:20:59.568Z,98437.69
2023-01-17T15:23:34.505Z,98438.50
2023-01-17T15:26:05.047Z,98436.69
2023-01-17T15:28:34.877Z,98435.88
2023-01-17T15:31:08.930Z,98432.34
2023-01-17T15:33:42.049Z,98446.81
2023-01-17T15:36:22.826Z,98445.06
2023-01-17T15:38:59.515Z,98449.38
2023-01-17T15:41:32.025Z,98447.47
2023-01-17T15:44:00.851Z,98441.47
2023-01-17T15:46:32.366Z,98448.22
2023-01-17T15:49:09.356Z,98449.88
2023-01-17T15:51:41.553Z,98449.84
2023-01-17T15:54:50.737Z,98455.72
2023-01-17T15:57:23.925Z,98454.81
2023-01-17T15:59:55.407Z,98457.34
2023-01-17T16:02:36.624Z,98461.56
2023-01-17T16:05:43.656Z,98471.78
2023-01-17T16:08:32.177Z,98464.84
2023-01-17T16:11:02.969Z,98474.31
2023-01-17T16:13:33.584Z,98464.88
2023-01-17T16:16:20.183Z,98468.16
2023-01-17T16:18:50.009Z,98469.03
2023-01-17T16:21:24.086Z,98469.06
2023-01-17T16:23:53.913Z,98475.78
2023-01-17T16:26:22.483Z,98475.78
2023-01-17T16:28:51.310Z,98478.22
2023-01-17T16:31:19.918Z,98473.78
2023-01-17T16:33:50.565Z,98479.72
2023-01-17T16:36:20.857Z,98479.69
2023-01-17T16:38:52.371Z,98482.19
2023-01-17T16:41:22.522Z,98496.81
2023-01-17T16:43:59.188Z,98483.91
2023-01-17T16:46:28.304Z,98489.03
2023-01-17T16:48:56.847Z,98489.75
2023-01-17T16:51:25.175Z,98493.94
2023-01-17T16:53:53.529Z,98492.22
2023-01-17T16:56:23.374Z,98501.63
2023-01-17T16:58:53.229Z,98493.91
2023-01-17T17:01:22.842Z,98506.56
2023-01-17T17:03:51.517Z,98508.28
2023-01-17T17:06:20.093Z,98498.84
2023-01-17T17:08:48.635Z,98500.47
2023-01-17T17:11:19.197Z,98510.59
2023-01-17T17:13:50.391Z,98498.56
2023-01-17T17:16:21.098Z,98505.31
2023-01-17T17:18:56.489Z,98509.59
2023-01-17T17:21:26.307Z,98511.19
2023-01-17T17:23:58.141Z,98514.50
2023-01-17T17:26:28.944Z,98519.59
2023-01-17T17:28:59.133Z,98510.97
2023-01-17T17:31:28.236Z,98514.38
2023-01-17T17:33:59.033Z,98515.25
2023-01-17T17:36:27.910Z,98517.91
2023-01-17T17:38:57.099Z,98526.50
2023-01-17T17:41:27.266Z,98529.00
2023-01-17T17:43:55.992Z,98537.56
2023-01-17T17:46:27.267Z,98534.00
2023-01-17T17:48:56.769Z,98536.56
2023-01-17T17:51:27.260Z,98533.13
2023-01-17T17:53:57.251Z,98532.25
2023-01-17T17:56:25.701Z,98539.88
2023-01-17T17:58:54.376Z,98545.78
2023-01-17T18:01:24.165Z,98544.88
2023-01-17T18:03:56.035Z,98545.66
2023-01-17T18:06:25.140Z,98544.72
2023-01-17T18:08:53.588Z,98552.41
2023-01-17T18:11:26.011Z,98555.69
2023-01-17T18:13:55.967Z,98551.47
2023-01-17T18:16:26.320Z,98554.03
2023-01-17T18:18:57.563Z,98554.75
2023-01-17T18:21:27.665Z,98548.84
2023-01-17T18:23:58.700Z,98548.72
2023-01-17T18:26:28.839Z,98552.84
2023-01-17T18:28:58.680Z,98559.75
2023-01-17T18:31:28.460Z,98557.97
2023-01-17T18:33:59.855Z,98551.88
2023-01-17T18:36:30.032Z,98559.50
2023-01-17T18:38:58.598Z,98560.19
2023-01-17T18:41:28.850Z,98566.06
2023-01-17T18:43:57.416Z,98569.31
2023-01-17T18:46:27.150Z,98568.41
2023-01-17T18:48:58.654Z,98564.97
2023-01-17T18:51:29.460Z,98560.69
2023-01-17T18:53:59.476Z,98564.06
2023-01-17T18:56:30.540Z,98567.38
2023-01-17T18:58:59.314Z,98567.31
2023-01-17T19:01:29.131Z,98573.28
2023-01-17T19:04:01.264Z,98578.34
2023-01-17T19:06:32.726Z,98585.09
2023-01-17T19:09:02.589Z,98572.25
2023-01-17T19:11:31.171Z,98579.09
2023-01-17T19:13:59.483Z,98577.38
2023-01-17T19:16:30.365Z,98573.03
2023-01-17T19:19:05.180Z,98587.72
2023-01-17T19:21:33.998Z,98594.56
2023-01-17T19:24:02.765Z,98589.44
2023-01-17T19:26:31.280Z,98589.38
2023-01-17T19:29:00.208Z,98586.00
2023-01-17T19:31:30.314Z,98587.63
2023-01-17T19:34:01.035Z,98592.69
2023-01-17T19:36:33.603Z,98591.59
2023-01-17T19:39:05.598Z,98589.75
2023-01-17T19:41:37.153Z,98593.03
2023-01-17T19:44:07.426Z,98595.50
2023-01-17T19:46:36.667Z,98599.66
2023-01-17T19:49:08.355Z,98598.66
2023-01-17T19:51:37.112Z,98597.63
2023-01-17T19:54:06.718Z,98602.47
2023-01-17T19:56:35.276Z,98608.97
2023-01-17T19:59:03.689Z,98610.28
2023-01-17T20:01:33.604Z,98598.88
2023-01-17T20:04:03.683Z,98607.19
2023-01-17T20:06:35.225Z,98606.97
2023-01-17T20:09:05.260Z,98605.94
2023-01-17T20:11:33.890Z,98610.81
2023-01-17T20:14:02.335Z,98610.63
2023-01-17T20:16:31.949Z,98617.28
2023-01-17T20:19:02.784Z,98618.03
2023-01-17T20:21:34.368Z,98618.72
2023-01-17T20:24:04.206Z,98616.94
2023-01-17T20:26:37.544Z,98608.38
2023-01-17T20:29:10.593Z,98604.03
2023-01-17T20:31:40.567Z,98608.28
2023-01-17T20:34:10.686Z,98613.34
2023-01-17T20:36:41.640Z,98614.16
2023-01-17T20:39:12.199Z,98614.94
2023-01-17T20:41:42.213Z,98620.81
2023-01-17T20:44:13.943Z,98615.59
2023-01-17T20:46:43.261Z,98618.84
2023-01-17T20:49:14.617Z,98626.38
2023-01-17T20:51:45.399Z,98627.16
2023-01-17T20:54:15.628Z,98636.47
2023-01-17T20:56:47.065Z,98639.81
2023-01-17T20:59:17.492Z,98648.28
2023-01-17T21:01:46.641Z,98645.69
2023-01-17T21:04:15.571Z,98655.88
2023-01-17T21:06:45.363Z,98660.06
2023-01-17T21:09:17.033Z,98672.75
2023-01-17T21:11:45.424Z,98679.47
2023-01-17T21:14:13.823Z,98683.75
2023-01-17T21:16:42.306Z,98697.28
2023-01-17T21:19:12.095Z,98696.25
2023-01-17T21:21:40.527Z,98700.56
2023-01-17T21:24:16.129Z,98707.44
2023-01-17T21:26:45.632Z,98701.56
2023-01-17T21:29:15.961Z,98708.41
2023-01-17T21:31:45.182Z,98706.72
2023-01-17T21:34:14.567Z,98706.66
2023-01-17T21:36:44.006Z,98718.56
2023-01-17T21:39:16.562Z,98722.81
2023-01-17T21:41:47.787Z,98727.00
2023-01-17T21:44:20.210Z,98731.25
2023-01-17T21:46:48.999Z,98737.00
2023-01-17T21:49:17.448Z,98746.28
2023-01-17T21:51:59.721Z,98747.88
2023-01-17T21:54:48.151Z,98738.44
2023-01-17T21:57:35.957Z,98740.91
2023-01-17T22:00:06.376Z,98745.88
2023-01-17T22:02:34.922Z,98743.25
2023-01-17T22:05:03.263Z,98739.78
2023-01-17T22:07:31.571Z,98752.41
2023-01-17T22:10:01.471Z,98746.31
2023-01-17T22:12:29.760Z,98754.75
2023-01-17T22:14:58.092Z,98756.38
2023-01-17T22:17:26.400Z,98751.28
2023-01-17T22:19:54.888Z,98746.16
2023-01-17T22:22:23.231Z,98751.28
2023-01-17T22:24:51.551Z,98762.38
2023-01-17T22:27:21.239Z,98748.66
2023-01-17T22:29:49.599Z,98748.72
2023-01-17T22:32:17.974Z,98756.47
2023-01-17T22:34:46.331Z,98748.72
2023-01-17T22:37:15.521Z,98755.56
2023-01-17T22:39:43.887Z,98746.31
2023-01-17T22:42:13.314Z,98749.78
2023-01-17T22:44:43.089Z,98743.00
2023-01-17T22:47:11.403Z,98740.47
2023-01-17T22:49:39.777Z,98741.41
2023-01-17T22:52:08.096Z,98737.91
2023-01-17T22:54:36.498Z,98740.47
2023-01-17T22:57:06.134Z,98739.56
2023-01-17T22:59:35.367Z,98734.44
2023-01-17T23:02:05.133Z,98737.69
2023-01-17T23:04:33.769Z,98741.75
2023-01-17T23:07:04.741Z,98740.84
2023-01-17T23:09:33.274Z,98741.50
2023-01-17T23:12:01.704Z,98738.84
2023-01-17T23:14:51.880Z,98735.25
2023-01-17T23:17:40.722Z,98729.03
2023-01-17T23:20:11.487Z,98727.16
2023-01-17T23:22:39.908Z,98721.16
2023-01-17T23:25:10.941Z,98725.34
2023-01-17T23:27:59.101Z,98728.72
2023-01-17T23:30:29.758Z,98721.81
2023-01-17T23:33:01.049Z,98724.22
2023-01-17T23:35:32.223Z,98717.31
2023-01-17T23:38:18.967Z,98713.84
2023-01-17T23:41:07.625Z,98708.56
2023-01-17T23:43:36.188Z,98708.59
2023-01-17T23:46:06.172Z,98698.41
2023-01-17T23:48:35.846Z,98693.28
2023-01-17T23:51:07.888Z,98695.84
2023-01-17T23:53:37.760Z,98680.53
2023-01-17T23:56:11.419Z,98691.69
2023-01-17T23:58:39.713Z,98690.06
